Time;durP1;ratioP1;P1;durP2;ratioP2;P2;SDS_P1;SDS_P2;PMS_P1;PMS_P2;Temp;Humidity;BMP_temperature;BMP_pressure;BME280_temperature;BME280_humidity;BME280_pressure;Samples;Min_cycle;Max_cycle;Signal;HPM_P1;HPM_P2
2022/08/05 00:01:12;;;;;;;4.85;3.67;;;28.70;94.90;;;;;;5008230;28;20224;-71
2022/08/05 00:03:41;;;;;;;4.80;3.90;;;28.60;94.80;;;;;;5008099;28;20641;-71
2022/08/05 00:06:11;;;;;;;5.25;3.70;;;28.60;94.90;;;;;;5008195;28;20216;-72
2022/08/05 00:08:38;;;;;;;7.57;3.65;;;28.60;95.10;;;;;;5008308;28;20213;-71
2022/08/05 00:11:13;;;;;;;8.60;3.20;;;28.50;95.20;;;;;;5008087;28;20227;-71
2022/08/05 00:13:42;;;;;;;3.83;3.50;;;28.50;95.20;;;;;;5007398;28;20209;-71
2022/08/05 00:16:13;;;;;;;5.22;3.30;;;28.40;95.10;;;;;;5008050;28;20237;-71
2022/08/05 00:18:43;;;;;;;6.30;3.72;;;28.40;95.10;;;;;;5008175;28;20213;-70
2022/08/05 00:21:11;;;;;;;3.72;3.42;;;28.30;95.10;;;;;;5007274;28;20224;-70
2022/08/05 00:23:39;;;;;;;3.58;3.15;;;28.20;95.10;;;;;;5007617;28;20214;-70
2022/08/05 00:26:09;;;;;;;4.68;3.72;;;28.20;95.40;;;;;;5007325;28;20669;-70
2022/08/05 00:28:36;;;;;;;7.47;3.55;;;28.10;95.40;;;;;;5007807;28;20208;-70
2022/08/05 00:31:11;;;;;;;5.20;3.42;;;28.10;95.40;;;;;;5007656;28;20715;-70
2022/08/05 00:33:38;;;;;;;6.05;3.53;;;28.10;95.30;;;;;;4988762;28;20200;-70
2022/08/05 00:36:13;;;;;;;6.18;3.60;;;28.10;95.20;;;;;;4988551;28;20237;-70
2022/08/05 00:38:40;;;;;;;3.70;3.40;;;28.10;95.10;;;;;;4988191;28;20206;-71
2022/08/05 00:41:09;;;;;;;6.22;3.30;;;28.00;94.90;;;;;;4989893;28;20209;-72
2022/08/05 00:43:36;;;;;;;6.75;3.42;;;27.80;95.00;;;;;;4992106;28;20708;-71
2022/08/05 00:46:10;;;;;;;5.60;4.43;;;27.70;94.80;;;;;;4992311;28;20245;-71
2022/08/05 00:48:37;;;;;;;6.35;4.00;;;27.70;95.00;;;;;;4992245;28;20193;-71
2022/08/05 00:51:12;;;;;;;8.52;3.72;;;27.70;95.10;;;;;;5010231;28;21017;-71
2022/08/05 00:53:39;;;;;;;6.70;4.10;;;27.80;95.20;;;;;;5011836;28;20208;-71
2022/08/05 00:56:12;;;;;;;4.60;4.10;;;27.90;95.30;;;;;;5011252;28;20240;-71
2022/08/05 00:58:39;;;;;;;7.40;3.58;;;27.90;95.30;;;;;;5011701;28;20201;-71
2022/08/05 01:01:14;;;;;;;4.47;4.00;;;27.90;95.30;;;;;;4996040;28;20221;-71
2022/08/05 01:03:41;;;;;;;4.93;4.05;;;28.00;95.40;;;;;;4991942;28;20205;-69
2022/08/05 01:06:15;;;;;;;4.32;3.92;;;27.90;95.40;;;;;;4991798;28;20220;-69
2022/08/05 01:08:42;;;;;;;4.10;3.80;;;28.00;95.50;;;;;;4991729;28;20205;-69
2022/08/05 01:11:17;;;;;;;3.90;3.60;;;28.00;95.60;;;;;;4991295;28;20210;-69
2022/08/05 01:13:52;;;;;;;7.55;3.85;;;28.00;95.70;;;;;;4991381;28;20202;-69
2022/08/05 01:16:25;;;;;;;4.43;3.90;;;27.90;95.70;;;;;;4991618;28;20221;-69
2022/08/05 01:18:57;;;;;;;4.25;3.85;;;27.90;95.80;;;;;;4991381;28;20202;-69
2022/08/05 01:22:00;;;;;;;4.20;3.83;;;27.80;95.90;;;;;;5006636;28;20653;-69
2022/08/05 01:24:47;;;;;;;5.30;3.80;;;27.80;96.00;;;;;;5010978;28;20323;-69
2022/08/05 01:27:28;;;;;;;6.65;3.65;;;27.70;96.10;;;;;;5011430;28;20220;-69
2022/08/05 01:30:02;;;;;;;3.80;3.50;;;27.80;96.20;;;;;;5010507;28;20221;-69
2022/08/05 01:32:33;;;;;;;7.03;3.95;;;27.80;96.30;;;;;;5002542;28;20285;-69
2022/08/05 01:35:05;;;;;;;4.22;3.88;;;27.80;96.70;;;;;;4990981;28;20202;-69
2022/08/05 01:37:36;;;;;;;4.38;4.07;;;27.80;96.50;;;;;;4990919;28;20276;-69
2022/08/05 01:40:09;;;;;;;4.65;3.58;;;27.70;96.60;;;;;;4991064;28;20198;-69
2022/08/05 01:42:38;;;;;;;4.93;3.67;;;27.70;96.70;;;;;;4991087;28;20205;-70
2022/08/05 01:45:09;;;;;;;4.50;4.07;;;27.70;96.80;;;;;;4990541;28;20216;-70
2022/08/05 01:47:38;;;;;;;5.55;4.13;;;27.60;96.90;;;;;;4991083;28;20200;-70
2022/08/05 01:50:08;;;;;;;8.88;3.83;;;27.60;97.00;;;;;;4990534;28;20214;-70
2022/08/05 01:52:37;;;;;;;5.80;3.95;;;27.60;97.10;;;;;;4990195;28;20555;-70
2022/08/05 01:55:09;;;;;;;4.10;3.80;;;27.60;97.30;;;;;;4996307;28;20210;-70
2022/08/05 01:57:40;;;;;;;7.10;3.60;;;27.50;97.30;;;;;;4989851;28;20281;-70
2022/08/05 02:00:10;;;;;;;7.05;3.85;;;27.50;97.30;;;;;;4990934;28;20201;-70
2022/08/05 02:02:41;;;;;;;5.10;4.25;;;27.50;97.30;;;;;;4991155;28;20213;-70
2022/08/05 02:05:13;;;;;;;5.78;3.47;;;27.40;97.50;;;;;;4991077;28;20282;-70
2022/08/05 02:07:41;;;;;;;4.68;3.78;;;27.50;97.60;;;;;;5009940;28;20700;-71
2022/08/05 02:10:10;;;;;;;7.47;3.60;;;27.40;97.60;;;;;;5010024;28;20863;-70
2022/08/05 02:12:44;;;;;;;5.15;3.30;;;27.40;97.60;;;;;;5010126;28;20280;-70
2022/08/05 02:15:16;;;;;;;3.78;3.45;;;27.40;97.70;;;;;;5008774;28;20280;-71
2022/08/05 02:17:50;;;;;;;8.13;3.60;;;27.40;97.70;;;;;;5010628;28;20218;-69
2022/08/05 02:20:23;;;;;;;4.25;3.55;;;27.40;97.70;;;;;;5018343;28;20279;-70
2022/08/05 02:22:56;;;;;;;3.80;3.40;;;27.40;97.70;;;;;;5015462;28;20193;-70
2022/08/05 02:25:27;;;;;;;4.90;4.05;;;27.40;97.70;;;;;;5010226;28;20196;-71
2022/08/05 02:27:56;;;;;;;6.32;3.25;;;27.40;97.70;;;;;;5006260;28;20211;-70
2022/08/05 02:30:26;;;;;;;6.35;3.58;;;27.40;97.70;;;;;;4993856;28;20224;-70
2022/08/05 02:32:56;;;;;;;3.70;3.40;;;27.40;98.10;;;;;;5007801;28;20201;-70
2022/08/05 02:35:25;;;;;;;4.47;4.07;;;27.50;97.80;;;;;;5007430;28;20675;-70
2022/08/05 02:37:54;;;;;;;5.70;3.90;;;27.40;97.80;;;;;;5007543;28;20241;-70
2022/08/05 02:40:23;;;;;;;5.68;3.38;;;27.40;97.80;;;;;;5006444;28;20216;-70
2022/08/05 02:42:51;;;;;;;3.97;3.63;;;27.40;97.80;;;;;;4999632;28;20684;-70
2022/08/05 02:45:19;;;;;;;4.00;3.70;;;27.40;97.90;;;;;;4988150;28;20210;-70
2022/08/05 02:47:50;;;;;;;6.32;3.95;;;27.40;98.00;;;;;;4987800;28;20237;-70
2022/08/05 02:50:18;;;;;;;7.90;4.03;;;27.40;98.00;;;;;;4988403;28;20198;-70
2022/08/05 02:52:46;;;;;;;6.15;4.00;;;27.40;98.00;;;;;;4987349;28;20209;-70
2022/08/05 02:55:14;;;;;;;4.55;4.13;;;27.40;98.10;;;;;;5007095;28;20205;-70
2022/08/05 02:57:42;;;;;;;6.32;4.60;;;27.30;98.10;;;;;;5006759;28;20264;-69
2022/08/05 03:00:12;;;;;;;5.78;4.45;;;27.30;98.10;;;;;;5007810;28;20221;-70
2022/08/05 03:02:41;;;;;;;5.90;4.40;;;27.30;98.20;;;;;;5001697;28;20253;-70
2022/08/05 03:05:12;;;;;;;8.52;4.28;;;27.30;98.20;;;;;;4987505;28;20229;-70
2022/08/05 03:07:40;;;;;;;7.57;4.95;;;27.30;98.30;;;;;;4997247;28;20208;-68
2022/08/05 03:10:09;;;;;;;5.47;4.40;;;27.30;98.30;;;;;;4991509;28;20206;-68
2022/08/05 03:12:49;;;;;;;5.88;3.67;;;27.30;98.40;;;;;;5007978;28;20296;-68
2022/08/05 03:15:16;;;;;;;5.38;4.10;;;27.30;98.40;;;;;;5007575;28;20193;-69
2022/08/05 03:17:42;;;;;;;3.80;3.50;;;27.30;98.50;;;;;;5006354;28;20598;-68
2022/08/05 03:20:12;;;;;;;4.55;3.63;;;27.20;98.50;;;;;;5007464;28;20218;-68
2022/08/05 03:22:38;;;;;;;5.85;4.03;;;27.20;98.60;;;;;;5007491;28;20209;-68
2022/08/05 03:25:06;;;;;;;5.57;3.40;;;27.20;98.70;;;;;;5007433;28;20210;-68
2022/08/05 03:27:33;;;;;;;4.93;3.20;;;27.10;98.60;;;;;;5008516;28;20220;-69
2022/08/05 03:29:59;;;;;;;4.10;3.40;;;27.10;98.60;;;;;;5008599;28;20696;-69
2022/08/05 03:32:27;;;;;;;4.07;3.33;;;27.10;98.60;;;;;;5008336;28;20209;-68
2022/08/05 03:34:54;;;;;;;3.92;3.72;;;27.10;98.60;;;;;;5008049;28;20216;-69
2022/08/05 03:37:22;;;;;;;4.97;3.90;;;27.10;99.00;;;;;;5008183;28;20232;-68
2022/08/05 03:39:55;;;;;;;5.65;4.00;;;27.10;98.60;;;;;;5008553;28;20317;-68
2022/08/05 03:42:22;;;;;;;4.65;3.65;;;27.10;98.60;;;;;;5008202;28;21044;-69
2022/08/05 03:44:48;;;;;;;5.30;3.75;;;27.10;98.60;;;;;;5008309;28;20213;-68
2022/08/05 03:47:15;;;;;;;4.00;3.60;;;27.10;98.70;;;;;;5008055;28;20695;-68
2022/08/05 03:49:42;;;;;;;4.35;2.95;;;27.10;98.80;;;;;;5008046;28;20224;-69
2022/08/05 03:52:11;;;;;;;4.30;3.47;;;27.10;98.80;;;;;;5008191;28;20206;-68
2022/08/05 03:54:47;;;;;;;4.43;3.45;;;27.00;98.80;;;;;;5008172;28;20210;-68
2022/08/05 03:57:17;;;;;;;6.40;3.35;;;27.00;98.80;;;;;;5007612;28;20272;-68
2022/08/05 03:59:48;;;;;;;6.10;3.38;;;27.00;98.90;;;;;;5008096;28;20213;-68
2022/08/05 04:02:16;;;;;;;5.72;3.65;;;27.00;98.90;;;;;;5007882;28;20200;-68
2022/08/05 04:04:44;;;;;;;5.15;3.58;;;27.00;99.00;;;;;;5008074;28;20220;-69
2022/08/05 04:07:11;;;;;;;4.57;3.40;;;26.80;99.10;;;;;;5008120;28;20273;-69
2022/08/05 04:09:40;;;;;;;4.50;3.88;;;26.70;99.30;;;;;;5007812;28;20215;-68
2022/08/05 04:12:08;;;;;;;4.43;3.80;;;26.70;99.30;;;;;;5007631;28;20213;-69
2022/08/05 04:14:36;;;;;;;3.78;3.38;;;26.80;99.30;;;;;;5008024;28;20297;-68
2022/08/05 04:17:03;;;;;;;4.70;3.53;;;26.90;99.30;;;;;;5007636;28;20231;-68
2022/08/05 04:19:30;;;;;;;6.22;3.40;;;26.90;99.30;;;;;;5007839;28;20217;-68
2022/08/05 04:21:57;;;;;;;3.75;3.17;;;26.90;99.30;;;;;;5007736;28;20205;-69
2022/08/05 04:24:23;;;;;;;3.80;3.38;;;27.00;99.10;;;;;;5008086;28;20216;-68
2022/08/05 04:26:52;;;;;;;5.00;3.33;;;27.00;99.10;;;;;;5007657;28;20216;-69
2022/08/05 04:29:18;;;;;;;7.38;3.95;;;27.00;99.10;;;;;;5007836;28;20253;-69
2022/08/05 04:31:45;;;;;;;7.50;3.97;;;27.00;99.10;;;;;;5007338;28;20550;-68
2022/08/05 04:34:12;;;;;;;5.82;4.22;;;27.10;99.10;;;;;;5007808;28;20217;-68
2022/08/05 04:36:39;;;;;;;4.20;3.80;;;27.10;99.30;;;;;;5007843;28;20209;-68
2022/08/05 04:39:05;;;;;;;4.00;3.60;;;27.10;99.30;;;;;;5007776;28;20586;-68
2022/08/05 04:41:32;;;;;;;4.10;3.85;;;27.00;99.20;;;;;;5007609;28;20288;-68
2022/08/05 04:44:00;;;;;;;4.68;4.25;;;27.00;99.40;;;;;;5007913;28;20297;-68
2022/08/05 04:46:27;;;;;;;7.95;4.60;;;27.00;99.40;;;;;;5007885;28;20209;-68
2022/08/05 04:48:54;;;;;;;9.60;3.70;;;26.90;99.50;;;;;;5007577;28;20316;-69
2022/08/05 04:51:21;;;;;;;4.03;3.70;;;26.90;99.60;;;;;;5007827;28;20231;-68
2022/08/05 04:53:48;;;;;;;5.93;3.67;;;26.80;99.50;;;;;;5007467;28;20280;-69
2022/08/05 04:56:15;;;;;;;5.30;4.32;;;26.80;99.50;;;;;;5007247;28;20259;-69
2022/08/05 04:58:42;;;;;;;6.57;3.65;;;26.90;99.60;;;;;;5007774;28;20600;-68
2022/08/05 05:01:16;;;;;;;5.15;3.80;;;26.80;99.60;;;;;;5007627;28;20233;-68
2022/08/05 05:03:44;;;;;;;7.63;4.80;;;26.90;99.60;;;;;;5007557;28;20276;-68
2022/08/05 05:06:14;;;;;;;4.47;4.13;;;27.00;99.60;;;;;;5007060;28;20210;-68
2022/08/05 05:08:40;;;;;;;4.68;4.03;;;27.00;99.60;;;;;;4994816;28;20213;-69
2022/08/05 05:11:13;;;;;;;5.95;3.90;;;27.10;99.60;;;;;;4987786;28;20210;-69
2022/08/05 05:13:40;;;;;;;3.33;3.13;;;27.10;99.60;;;;;;4988094;28;20312;-69
2022/08/05 05:16:13;;;;;;;6.47;4.03;;;27.10;99.30;;;;;;4987948;28;20210;-69
2022/08/05 05:18:42;;;;;;;3.70;3.45;;;27.10;99.30;;;;;;4987841;28;20257;-68
2022/08/05 05:21:12;;;;;;;6.20;4.30;;;27.10;99.40;;;;;;4987652;28;20261;-68
2022/08/05 05:23:39;;;;;;;6.53;3.88;;;27.00;99.60;;;;;;4987755;28;20206;-69
2022/08/05 05:26:12;;;;;;;4.72;4.00;;;26.80;99.90;;;;;;4987992;28;20210;-69
2022/08/05 05:28:38;;;;;;;8.70;4.20;;;26.70;99.90;;;;;;4991492;28;20214;-70
2022/08/05 05:31:14;;;;;;;9.20;4.18;;;26.70;99.90;;;;;;4991383;28;20226;-69
2022/08/05 05:33:43;;;;;;;6.28;4.03;;;26.70;99.90;;;;;;4991201;28;20206;-69
2022/08/05 05:36:11;;;;;;;3.88;3.58;;;26.80;99.90;;;;;;4991099;28;20211;-68
2022/08/05 05:38:38;;;;;;;4.35;3.63;;;26.80;99.90;;;;;;4990914;28;20345;-69
2022/08/05 05:41:12;;;;;;;4.47;3.67;;;26.90;99.90;;;;;;4991029;28;20220;-68
2022/08/05 05:43:39;;;;;;;3.60;3.30;;;26.90;99.90;;;;;;4990958;28;20206;-69
2022/08/05 05:46:12;;;;;;;5.07;3.50;;;26.80;99.90;;;;;;4991230;28;20715;-69
2022/08/05 05:48:40;;;;;;;3.53;3.28;;;26.80;99.90;;;;;;4999622;28;20300;-69
2022/08/05 05:51:20;;;;;;;4.43;3.60;;;26.80;99.90;;;;;;5010442;28;20594;-69
2022/08/05 05:53:47;;;;;;;9.52;3.47;;;26.70;99.90;;;;;;5010624;28;20189;-69
2022/08/05 05:56:14;;;;;;;3.40;3.17;;;26.50;99.90;;;;;;5010109;28;20206;-69
2022/08/05 05:58:40;;;;;;;4.00;3.55;;;26.50;99.90;;;;;;5009794;28;20268;-69
2022/08/05 06:01:12;;;;;;;4.80;3.65;;;26.50;99.90;;;;;;5010380;28;20295;-69
2022/08/05 06:03:39;;;;;;;3.72;3.40;;;26.40;99.90;;;;;;5010365;28;20209;-69
2022/08/05 06:06:15;;;;;;;13.60;3.58;;;26.40;99.90;;;;;;5010302;28;20287;-69
2022/08/05 06:08:43;;;;;;;7.30;3.45;;;26.40;99.90;;;;;;5010517;28;20200;-68
2022/08/05 06:11:16;;;;;;;3.58;3.30;;;26.50;99.90;;;;;;5010295;28;20216;-69
2022/08/05 06:13:42;;;;;;;3.83;3.50;;;26.50;99.90;;;;;;5009795;28;20212;-69
2022/08/05 06:16:12;;;;;;;8.23;3.40;;;26.50;99.90;;;;;;5009892;28;20218;-69
2022/08/05 06:18:39;;;;;;;4.10;2.88;;;26.50;99.90;;;;;;5009938;28;20316;-68
2022/08/05 06:21:15;;;;;;;3.58;3.28;;;26.50;99.90;;;;;;5010062;28;20236;-69
2022/08/05 06:23:43;;;;;;;14.73;4.00;;;26.50;99.90;;;;;;5009916;28;20209;-69
2022/08/05 06:26:13;;;;;;;6.70;3.17;;;26.60;99.90;;;;;;5009797;28;20220;-69
2022/08/05 06:28:40;;;;;;;7.70;3.35;;;26.50;99.90;;;;;;5009806;28;20217;-69
2022/08/05 06:31:16;;;;;;;9.07;3.60;;;26.50;99.90;;;;;;5010287;28;20205;-69
2022/08/05 06:33:43;;;;;;;24.80;5.72;;;26.60;99.90;;;;;;5009332;28;20690;-68
2022/08/05 06:36:13;;;;;;;7.35;2.83;;;26.60;99.90;;;;;;5009853;28;20587;-69
2022/08/05 06:38:40;;;;;;;5.60;2.80;;;26.60;99.90;;;;;;5008511;28;20749;-69
2022/08/05 06:41:17;;;;;;;4.75;3.28;;;26.60;99.90;;;;;;5009247;28;20206;-69
2022/08/05 06:43:44;;;;;;;4.47;2.72;;;26.60;99.90;;;;;;5009548;28;20205;-69
2022/08/05 06:46:14;;;;;;;4.40;2.80;;;26.60;99.90;;;;;;5009329;28;20308;-69
2022/08/05 06:48:41;;;;;;;3.47;3.17;;;26.60;99.90;;;;;;5009212;28;20205;-69
2022/08/05 06:51:17;;;;;;;5.45;2.80;;;26.70;99.90;;;;;;5009392;28;20206;-69
2022/08/05 06:53:43;;;;;;;5.43;3.40;;;26.70;99.90;;;;;;5009121;28;20201;-69
2022/08/05 06:56:13;;;;;;;3.97;3.15;;;26.70;99.90;;;;;;5008751;28;20265;-69
2022/08/05 06:58:41;;;;;;;5.78;2.95;;;26.70;99.90;;;;;;5008923;28;20745;-69
2022/08/05 07:01:14;;;;;;;8.50;3.30;;;26.70;99.90;;;;;;5009210;28;20206;-69
2022/08/05 07:03:41;;;;;;;4.43;2.80;;;26.70;99.90;;;;;;5008925;28;20206;-69
2022/08/05 07:06:17;;;;;;;5.97;3.10;;;26.70;99.90;;;;;;5009126;28;20211;-69
2022/08/05 07:08:44;;;;;;;3.25;2.70;;;26.80;99.90;;;;;;5008622;28;20215;-70
2022/08/05 07:11:11;;;;;;;3.38;3.17;;;26.80;99.90;;;;;;5008762;28;20654;-69
2022/08/05 07:19:08;;;;;;;6.25;3.33;;;26.70;99.90;;;;;;5008474;28;20806;-69
2022/08/05 07:21:35;;;;;;;4.10;3.25;;;26.70;99.90;;;;;;5008684;28;20209;-69
2022/08/05 07:24:02;;;;;;;4.72;4.10;;;26.70;99.90;;;;;;5008707;28;20205;-69
2022/08/05 07:26:29;;;;;;;4.38;3.20;;;26.70;99.90;;;;;;5008229;28;20216;-69
2022/08/05 07:28:56;;;;;;;11.18;3.80;;;26.70;99.90;;;;;;5008296;28;20210;-69
2022/08/05 07:31:24;;;;;;;3.78;3.38;;;26.70;99.90;;;;;;5008613;28;20260;-69
2022/08/05 07:33:51;;;;;;;3.38;3.08;;;26.70;99.90;;;;;;5008284;28;20205;-69
2022/08/05 07:36:18;;;;;;;4.53;3.17;;;26.70;99.90;;;;;;5008585;28;20232;-69
2022/08/05 07:38:44;;;;;;;9.90;3.75;;;26.70;99.90;;;;;;5008313;28;20254;-69
2022/08/05 07:41:20;;;;;;;10.20;3.85;;;26.70;99.90;;;;;;5008347;28;20205;-68
2022/08/05 07:43:47;;;;;;;3.25;2.95;;;26.60;99.90;;;;;;5008225;28;20217;-68
2022/08/05 07:46:14;;;;;;;4.35;3.13;;;26.60;99.90;;;;;;5008235;28;20668;-68
2022/08/05 07:48:42;;;;;;;3.25;2.95;;;26.50;99.90;;;;;;5008329;28;20279;-69
2022/08/05 07:51:15;;;;;;;8.25;3.28;;;26.50;99.90;;;;;;5008110;28;20205;-68
2022/08/05 07:53:42;;;;;;;4.78;3.78;;;26.50;99.90;;;;;;5007717;28;20216;-68
2022/08/05 07:56:15;;;;;;;5.65;3.60;;;26.40;99.90;;;;;;5007932;28;20206;-69
2022/08/05 07:58:41;;;;;;;12.32;3.83;;;26.40;99.90;;;;;;5007815;28;20221;-69
2022/08/05 08:01:14;;;;;;;4.28;3.78;;;26.40;99.90;;;;;;5008139;28;20320;-68
2022/08/05 08:03:43;;;;;;;6.13;3.22;;;26.30;99.90;;;;;;5007913;28;20212;-69
2022/08/05 08:06:15;;;;;;;5.13;3.60;;;26.00;99.90;;;;;;5008289;28;20212;-68
2022/08/05 08:08:42;;;;;;;8.00;3.80;;;26.00;99.90;;;;;;5007980;28;20228;-69
2022/08/05 08:11:35;;;;;;;6.60;3.90;;;26.00;99.90;;;;;;5007957;28;20227;-68
2022/08/05 08:14:02;;;;;;;4.30;4.00;;;25.90;99.90;;;;;;5007547;28;20590;-68
2022/08/05 08:16:29;;;;;;;3.50;3.25;;;25.90;99.90;;;;;;5008006;28;20209;-68
2022/08/05 08:18:57;;;;;;;4.90;3.72;;;25.80;99.90;;;;;;5007373;28;20331;-68
2022/08/05 08:21:26;;;;;;;3.85;3.58;;;25.60;99.90;;;;;;5008050;28;20213;-69
2022/08/05 08:23:53;;;;;;;5.63;3.55;;;25.70;99.90;;;;;;5007605;28;20205;-69
2022/08/05 08:26:20;;;;;;;3.50;3.30;;;25.80;99.90;;;;;;5007739;28;20205;-69
2022/08/05 08:28:47;;;;;;;5.57;3.15;;;25.90;99.90;;;;;;5007922;28;20213;-69
2022/08/05 08:31:14;;;;;;;3.58;2.95;;;25.90;99.90;;;;;;5007766;28;20209;-69
2022/08/05 08:33:40;;;;;;;5.00;3.67;;;26.00;99.90;;;;;;5007839;28;20573;-69
2022/08/05 08:36:09;;;;;;;4.53;3.95;;;26.10;99.90;;;;;;5007769;28;20574;-68
2022/08/05 08:38:39;;;;;;;3.80;3.50;;;26.10;99.90;;;;;;5007576;28;20235;-71
2022/08/05 08:41:15;;;;;;;6.13;3.45;;;26.20;99.90;;;;;;5007718;28;20212;-69
2022/08/05 08:43:44;;;;;;;4.38;3.28;;;26.20;99.90;;;;;;5007793;28;20216;-69
2022/08/05 08:46:11;;;;;;;4.60;3.60;;;26.20;99.90;;;;;;5007560;28;20205;-69
2022/08/05 08:48:41;;;;;;;4.10;2.88;;;26.20;99.90;;;;;;5007100;28;20606;-69
2022/08/05 08:51:09;;;;;;;3.42;3.15;;;26.10;99.90;;;;;;5007461;28;20200;-69
2022/08/05 08:53:38;;;;;;;4.65;3.30;;;25.90;99.90;;;;;;5007777;28;20209;-69
2022/08/05 08:56:11;;;;;;;5.40;3.50;;;25.80;99.90;;;;;;5007464;28;20209;-69
2022/08/05 08:58:38;;;;;;;3.50;3.20;;;25.80;99.90;;;;;;5007484;28;20300;-69
2022/08/05 09:01:08;;;;;;;5.93;3.30;;;25.80;99.90;;;;;;5007552;28;20202;-69
2022/08/05 09:03:36;;;;;;;3.35;3.10;;;25.90;99.90;;;;;;5011285;28;20210;-69
2022/08/05 09:06:02;;;;;;;3.78;3.13;;;26.00;99.90;;;;;;5011391;28;20650;-69
2022/08/05 09:08:30;;;;;;;5.20;3.50;;;26.00;99.90;;;;;;5011128;28;20216;-69
2022/08/05 09:10:57;;;;;;;3.00;2.80;;;26.10;99.90;;;;;;5011057;28;20217;-69
2022/08/05 09:13:24;;;;;;;10.10;3.80;;;26.20;99.90;;;;;;5011133;28;20335;-69
2022/08/05 09:15:52;;;;;;;5.90;3.40;;;26.20;99.90;;;;;;5011214;28;20214;-69
2022/08/05 09:18:19;;;;;;;5.80;3.40;;;26.10;99.90;;;;;;5010504;28;20218;-69
2022/08/05 09:20:46;;;;;;;3.50;3.10;;;26.10;99.90;;;;;;5010647;28;20547;-69
2022/08/05 09:23:14;;;;;;;3.80;3.28;;;26.10;99.90;;;;;;5010911;28;20233;-69
2022/08/05 09:25:44;;;;;;;4.97;2.92;;;26.10;99.90;;;;;;5010827;28;20589;-69
2022/08/05 09:28:14;;;;;;;3.63;3.25;;;26.20;99.90;;;;;;5011082;28;20202;-69
2022/08/05 09:30:44;;;;;;;3.60;3.30;;;26.30;99.90;;;;;;5010633;28;20350;-69
2022/08/05 09:33:11;;;;;;;5.20;3.30;;;26.30;99.90;;;;;;5010446;28;20578;-69
2022/08/05 09:35:52;;;;;;;4.28;2.85;;;26.10;99.90;;;;;;5010592;28;20217;-69
2022/08/05 09:38:19;;;;;;;3.85;3.40;;;26.10;99.90;;;;;;5010699;28;20220;-69
2022/08/05 09:40:47;;;;;;;4.57;3.42;;;26.10;99.90;;;;;;5010253;28;20296;-69
2022/08/05 09:43:27;;;;;;;3.65;2.85;;;26.10;99.90;;;;;;5010386;28;20562;-69
2022/08/05 09:45:54;;;;;;;4.03;3.40;;;26.20;99.90;;;;;;5010354;28;20197;-69
2022/08/05 09:48:25;;;;;;;3.63;3.30;;;26.20;99.90;;;;;;5010495;28;20220;-69
2022/08/05 09:50:54;;;;;;;4.85;3.05;;;26.10;99.90;;;;;;5010376;28;20217;-69
2022/08/05 09:53:22;;;;;;;3.70;3.40;;;26.10;99.90;;;;;;5010075;28;20748;-69
2022/08/05 09:55:54;;;;;;;3.42;3.10;;;26.10;99.90;;;;;;5009811;28;20300;-69
2022/08/05 09:58:21;;;;;;;4.13;3.72;;;26.10;99.90;;;;;;5009943;28;20236;-69
2022/08/05 10:00:56;;;;;;;7.35;3.90;;;26.00;99.90;;;;;;5010341;28;20205;-69
2022/08/05 10:03:22;;;;;;;3.95;3.35;;;25.60;99.90;;;;;;5010375;28;20209;-69
2022/08/05 10:06:10;;;;;;;7.13;3.38;;;25.50;99.90;;;;;;5010309;28;20241;-69
2022/08/05 10:08:38;;;;;;;4.22;3.83;;;25.60;99.90;;;;;;5010262;28;20202;-69
2022/08/05 10:11:16;;;;;;;3.72;3.42;;;25.50;99.90;;;;;;5010051;28;20210;-69
2022/08/05 10:13:43;;;;;;;3.88;3.40;;;25.50;99.90;;;;;;5009901;28;20288;-69
2022/08/05 10:16:29;;;;;;;5.50;3.78;;;25.50;99.90;;;;;;5010027;28;20217;-69
2022/08/05 10:18:56;;;;;;;5.22;3.33;;;25.70;99.90;;;;;;5009899;28;20271;-69
2022/08/05 10:21:24;;;;;;;4.90;3.78;;;25.80;99.90;;;;;;5010138;28;20312;-69
2022/08/05 10:23:51;;;;;;;6.65;3.08;;;25.80;99.90;;;;;;5009609;28;20213;-69
2022/08/05 10:26:19;;;;;;;4.63;3.10;;;25.80;99.90;;;;;;5009574;28;20660;-69
2022/08/05 10:28:47;;;;;;;4.63;3.20;;;25.80;99.90;;;;;;5009200;28;20743;-69
2022/08/05 10:31:16;;;;;;;5.18;3.05;;;25.80;99.90;;;;;;5009656;28;20205;-69
2022/08/05 10:33:43;;;;;;;4.13;3.25;;;25.80;99.90;;;;;;5009324;28;20823;-69
2022/08/05 10:36:10;;;;;;;3.33;3.10;;;25.80;99.90;;;;;;5009649;28;20206;-69
2022/08/05 10:38:39;;;;;;;4.18;3.38;;;25.80;99.90;;;;;;5009613;28;20216;-70
2022/08/05 10:41:30;;;;;;;3.55;3.17;;;25.80;99.90;;;;;;5009524;28;20209;-69
2022/08/05 10:44:01;;;;;;;3.72;3.40;;;25.90;99.90;;;;;;5009282;28;20648;-69
2022/08/05 10:46:44;;;;;;;4.53;3.90;;;26.00;99.90;;;;;;5009822;28;20194;-69
2022/08/05 10:49:11;;;;;;;5.03;3.75;;;26.10;99.90;;;;;;5009799;28;20238;-69
2022/08/05 10:51:43;;;;;;;4.20;3.90;;;26.30;99.90;;;;;;5009522;28;20569;-69
2022/08/05 10:54:10;;;;;;;5.95;3.83;;;26.40;99.90;;;;;;5009747;28;20194;-70
2022/08/05 10:56:45;;;;;;;5.35;3.15;;;26.60;99.90;;;;;;5009249;28;20259;-69
2022/08/05 10:59:17;;;;;;;3.28;2.97;;;26.70;99.90;;;;;;5009573;28;20251;-69
2022/08/05 11:01:45;;;;;;;3.08;2.80;;;26.90;99.90;;;;;;5009218;28;20190;-69
2022/08/05 11:04:13;;;;;;;4.70;2.75;;;27.10;99.90;;;;;;5009141;28;20288;-69
2022/08/05 11:07:07;;;;;;;3.10;2.80;;;27.10;99.90;;;;;;5009199;28;20274;-69
2022/08/05 11:09:52;;;;;;;3.08;2.78;;;27.20;99.90;;;;;;5009171;28;20256;-69
2022/08/05 11:12:45;;;;;;;4.50;2.30;;;27.30;99.90;;;;;;5008622;28;20217;-69
2022/08/05 11:15:22;;;;;;;3.20;2.90;;;27.50;99.90;;;;;;4999600;28;20205;-70
2022/08/05 11:17:50;;;;;;;2.80;2.60;;;27.60;99.90;;;;;;5009173;28;20551;-69
2022/08/05 11:20:38;;;;;;;2.22;2.13;;;27.60;99.90;;;;;;5008321;28;20712;-70
2022/08/05 11:23:28;;;;;;;3.35;2.50;;;27.80;99.90;;;;;;5009154;28;20209;-69
2022/08/05 11:26:03;;;;;;;5.25;2.40;;;27.80;99.90;;;;;;5007641;28;20213;-70
2022/08/05 11:28:45;;;;;;;2.88;2.40;;;28.00;99.90;;;;;;5008572;28;20292;-70
2022/08/05 11:31:31;;;;;;;2.75;2.55;;;28.10;99.90;;;;;;5008568;28;20288;-69
2022/08/05 11:34:00;;;;;;;2.63;2.42;;;28.30;99.90;;;;;;5008380;28;20202;-69
2022/08/05 11:36:50;;;;;;;2.47;2.35;;;28.40;99.90;;;;;;5008370;28;20205;-69
2022/08/05 11:39:36;;;;;;;4.93;4.60;;;28.40;99.90;;;;;;5008262;28;20221;-69
2022/08/05 11:42:04;;;;;;;3.35;2.53;;;28.40;99.90;;;;;;5008178;28;20204;-69
2022/08/05 11:44:39;;;;;;;2.60;2.40;;;28.40;99.90;;;;;;5008488;28;20206;-69
2022/08/05 11:47:06;;;;;;;2.60;2.28;;;28.50;99.90;;;;;;5008347;28;20644;-69
2022/08/05 11:49:33;;;;;;;2.67;2.42;;;28.60;99.90;;;;;;5007822;28;20210;-69
2022/08/05 11:52:00;;;;;;;2.65;2.33;;;28.70;99.90;;;;;;5008321;28;20220;-69
2022/08/05 11:54:31;;;;;;;2.40;2.30;;;28.80;99.90;;;;;;5008440;28;20206;-69
2022/08/05 11:56:59;;;;;;;2.33;2.20;;;28.90;99.90;;;;;;5007715;28;20263;-69
2022/08/05 11:59:27;;;;;;;2.50;2.30;;;29.00;99.90;;;;;;5007919;28;20225;-69
2022/08/05 12:02:04;;;;;;;2.85;2.25;;;29.00;99.90;;;;;;5007964;28;20213;-69
2022/08/05 12:04:39;;;;;;;5.00;2.40;;;29.10;99.90;;;;;;5008176;28;20201;-69
2022/08/05 12:07:07;;;;;;;2.88;2.65;;;29.10;99.90;;;;;;5008241;28;20197;-69
2022/08/05 12:09:37;;;;;;;2.25;2.13;;;29.10;99.90;;;;;;5007988;28;20213;-69
2022/08/05 12:12:05;;;;;;;2.20;2.10;;;29.10;99.90;;;;;;5007800;28;20288;-69
2022/08/05 12:14:39;;;;;;;2.35;2.15;;;29.10;99.90;;;;;;5008085;28;20216;-69
2022/08/05 12:17:13;;;;;;;3.03;2.80;;;29.20;99.90;;;;;;5008093;28;20457;-69
2022/08/05 12:19:43;;;;;;;2.80;2.10;;;29.30;99.90;;;;;;5007730;28;20221;-69
2022/08/05 12:22:11;;;;;;;2.55;2.35;;;29.40;99.90;;;;;;5008098;28;20240;-69
2022/08/05 12:24:42;;;;;;;3.47;2.28;;;29.40;99.90;;;;;;5007576;28;20205;-69
2022/08/05 12:27:09;;;;;;;3.30;2.50;;;29.40;99.90;;;;;;5007770;28;20632;-69
2022/08/05 12:29:36;;;;;;;2.47;2.28;;;29.30;99.90;;;;;;5007393;28;20229;-70
2022/08/05 12:32:06;;;;;;;2.85;2.65;;;29.30;99.90;;;;;;5008083;28;20816;-69
2022/08/05 12:34:36;;;;;;;5.88;2.60;;;29.20;99.90;;;;;;5007623;28;20209;-69
2022/08/05 12:37:09;;;;;;;2.65;2.45;;;29.20;99.90;;;;;;5009511;28;20682;-69
2022/08/05 12:39:37;;;;;;;2.58;2.38;;;29.10;99.90;;;;;;5011864;28;20240;-69
2022/08/05 12:42:09;;;;;;;3.97;2.58;;;29.10;99.90;;;;;;5011735;28;20201;-69
2022/08/05 12:44:36;;;;;;;3.65;2.15;;;29.10;99.90;;;;;;5011983;28;20211;-70
2022/08/05 12:47:04;;;;;;;2.53;2.15;;;29.10;99.60;;;;;;5012039;28;20231;-69
2022/08/05 12:49:44;;;;;;;2.97;2.15;;;29.10;99.40;;;;;;5011125;28;20213;-69
2022/08/05 12:52:16;;;;;;;2.85;1.90;;;29.10;99.80;;;;;;5006578;28;20217;-69
2022/08/05 12:54:45;;;;;;;3.83;1.92;;;29.10;99.60;;;;;;5002460;28;20210;-70
2022/08/05 12:57:12;;;;;;;2.38;2.10;;;29.20;99.40;;;;;;5008517;28;20316;-69
2022/08/05 12:59:48;;;;;;;2.58;2.38;;;29.20;99.00;;;;;;5005546;28;20715;-69
2022/08/05 13:02:19;;;;;;;4.57;2.45;;;29.10;99.00;;;;;;5008961;28;20685;-69
2022/08/05 13:04:49;;;;;;;2.50;2.30;;;29.00;99.30;;;;;;5008945;28;20204;-69
2022/08/05 13:07:18;;;;;;;3.38;2.20;;;29.00;99.50;;;;;;5008938;28;20213;-69